DLH9YP EDDM-LIRF
Flight info
| Callsign | DLH9YP |
|---|---|
| Flight time | 1h 10m |
| Altitude | 35000 |
| Route | TURBU7S/26L TURBU Y107 TOBSO DCT BAKOR DCT VESAL DCT LAMPO DCT ROKIB DCT VIC DCT KOPER DCT SUKOM DCT BAGNO DCT GAVRA DCT RITEB |
| Aircraft | A321/M-SDE3FGHIRWY/LB1 |
Departure
| Time | 2026-05-04 09:30 |
|---|---|
| Airport | Munich Airport (EDDM) |
Arrival
| Time | 2026-05-04 10:40 |
|---|---|
| Airport | Rome–Fiumicino Leonardo da Vinci International Airport (LIRF) |
| Time | Latitude | Longitude | Altitude | Speed | Heading |
|---|---|---|---|---|---|
| 2026-05-04 08:57 | 48.35059 | 11.79384 | 1473 ft | 0 kts | 263° |
| 2026-05-04 09:20 | 48.35060 | 11.79403 | 1485 ft | 4 kts | 263° |
| 2026-05-04 09:20 | 48.35063 | 11.79443 | 1481 ft | 4 kts | 263° |
| 2026-05-04 09:21 | 48.35066 | 11.79476 | 1477 ft | 4 kts | 252° |
| 2026-05-04 09:21 | 48.35079 | 11.79507 | 1471 ft | 4 kts | 210° |
| 2026-05-04 09:21 | 48.35101 | 11.79515 | 1471 ft | 4 kts | 173° |
| 2026-05-04 09:21 | 48.35121 | 11.79512 | 1475 ft | 0 kts | 173° |
| 2026-05-04 09:25 | 48.35053 | 11.79524 | 1485 ft | 10 kts | 173° |
| 2026-05-04 09:25 | 48.34977 | 11.79537 | 1481 ft | 12 kts | 173° |
| 2026-05-04 09:26 | 48.34884 | 11.79553 | 1484 ft | 15 kts | 173° |
| 2026-05-04 09:26 | 48.34803 | 11.79595 | 1482 ft | 11 kts | 124° |
| 2026-05-04 09:26 | 48.34803 | 11.79714 | 1480 ft | 12 kts | 83° |
| 2026-05-04 09:26 | 48.34814 | 11.79852 | 1480 ft | 16 kts | 83° |
| 2026-05-04 09:27 | 48.34829 | 11.80046 | 1479 ft | 21 kts | 83° |
| 2026-05-04 09:27 | 48.34846 | 11.80265 | 1485 ft | 17 kts | 83° |
| 2026-05-04 09:27 | 48.34856 | 11.80400 | 1479 ft | 12 kts | 86° |
| 2026-05-04 09:27 | 48.34827 | 11.80516 | 1481 ft | 13 kts | 135° |
| 2026-05-04 09:28 | 48.34744 | 11.80559 | 1483 ft | 13 kts | 173° |
| 2026-05-04 09:28 | 48.34650 | 11.80570 | 1485 ft | 14 kts | 185° |
| 2026-05-04 09:28 | 48.34565 | 11.80494 | 1475 ft | 15 kts | 220° |
| 2026-05-04 09:28 | 48.34489 | 11.80384 | 1475 ft | 16 kts | 235° |
| 2026-05-04 09:29 | 48.34463 | 11.80223 | 1482 ft | 17 kts | 263° |
| 2026-05-04 09:29 | 48.34433 | 11.79835 | 1477 ft | 72 kts | 263° |
| 2026-05-04 09:29 | 48.34349 | 11.78745 | 1474 ft | 136 kts | 263° |
| 2026-05-04 09:29 | 48.34219 | 11.77061 | 1479 ft | 186 kts | 263° |
| 2026-05-04 09:30 | 48.34069 | 11.75080 | 2065 ft | 188 kts | 264° |
| 2026-05-04 09:30 | 48.33903 | 11.73116 | 2749 ft | 194 kts | 261° |
| 2026-05-04 09:30 | 48.33176 | 11.71330 | 2929 ft | 215 kts | 215° |
| 2026-05-04 09:30 | 48.31732 | 11.70602 | 3192 ft | 225 kts | 186° |
| 2026-05-04 09:31 | 48.30164 | 11.70463 | 3752 ft | 226 kts | 178° |
| 2026-05-04 09:31 | 48.28631 | 11.70861 | 4379 ft | 224 kts | 154° |
| 2026-05-04 09:31 | 48.27269 | 11.72119 | 4730 ft | 240 kts | 141° |
| 2026-05-04 09:31 | 48.25858 | 11.73671 | 5039 ft | 261 kts | 143° |
| 2026-05-04 09:32 | 48.24348 | 11.75258 | 5677 ft | 266 kts | 145° |
| 2026-05-04 09:32 | 48.22813 | 11.76830 | 6451 ft | 268 kts | 146° |
| 2026-05-04 09:34 | 48.10289 | 11.83870 | 10447 ft | 313 kts | 170° |
| 2026-05-04 09:34 | 48.08086 | 11.84505 | 10620 ft | 331 kts | 170° |
| 2026-05-04 09:34 | 48.05797 | 11.85166 | 11115 ft | 337 kts | 170° |
| 2026-05-04 09:34 | 48.03488 | 11.85832 | 11696 ft | 340 kts | 170° |
| 2026-05-04 09:35 | 48.01154 | 11.86504 | 12259 ft | 343 kts | 170° |
| 2026-05-04 09:35 | 47.98797 | 11.87184 | 12861 ft | 346 kts | 171° |
| 2026-05-04 09:35 | 47.96428 | 11.87866 | 13481 ft | 348 kts | 171° |
| 2026-05-04 09:35 | 47.94039 | 11.88552 | 14045 ft | 351 kts | 171° |
| 2026-05-04 09:37 | 47.76772 | 11.93501 | 17486 ft | 372 kts | 171° |
| 2026-05-04 09:37 | 47.74219 | 11.94218 | 17968 ft | 375 kts | 173° |
| 2026-05-04 09:38 | 47.71624 | 11.94525 | 18434 ft | 375 kts | 182° |
| 2026-05-04 09:38 | 47.69003 | 11.94467 | 18848 ft | 378 kts | 183° |
| 2026-05-04 09:38 | 47.66361 | 11.94410 | 19218 ft | 380 kts | 182° |
| 2026-05-04 09:38 | 47.63705 | 11.94359 | 19578 ft | 383 kts | 182° |
| 2026-05-04 09:39 | 47.61026 | 11.94313 | 19994 ft | 385 kts | 182° |
| 2026-05-04 09:39 | 47.58335 | 11.94269 | 20352 ft | 388 kts | 182° |
| 2026-05-04 09:39 | 47.55626 | 11.94227 | 20784 ft | 390 kts | 182° |
| 2026-05-04 09:39 | 47.52904 | 11.94181 | 21192 ft | 393 kts | 182° |
| 2026-05-04 09:40 | 47.50195 | 11.94132 | 21575 ft | 396 kts | 182° |
| 2026-05-04 09:40 | 47.47393 | 11.94080 | 21955 ft | 399 kts | 182° |
| 2026-05-04 09:40 | 47.44646 | 11.94034 | 22322 ft | 401 kts | 182° |
| 2026-05-04 09:40 | 47.41854 | 11.93775 | 22675 ft | 403 kts | 188° |
| 2026-05-04 09:41 | 47.39066 | 11.93218 | 23043 ft | 406 kts | 188° |
| 2026-05-04 09:42 | 47.19120 | 11.89221 | 25372 ft | 421 kts | 189° |
| 2026-05-04 09:43 | 47.16216 | 11.88646 | 25706 ft | 422 kts | 189° |
| 2026-05-04 09:43 | 47.13299 | 11.88069 | 26045 ft | 423 kts | 190° |
| 2026-05-04 09:43 | 47.10365 | 11.87489 | 26378 ft | 425 kts | 189° |
| 2026-05-04 09:43 | 47.07430 | 11.86910 | 26682 ft | 427 kts | 189° |
| 2026-05-04 09:44 | 47.04470 | 11.86327 | 26934 ft | 430 kts | 189° |
| 2026-05-04 09:44 | 47.01539 | 11.85741 | 27261 ft | 431 kts | 191° |
| 2026-05-04 09:44 | 46.98581 | 11.85005 | 27590 ft | 432 kts | 193° |
| 2026-05-04 09:46 | 46.77672 | 11.78117 | 29418 ft | 447 kts | 194° |
| 2026-05-04 09:46 | 46.74633 | 11.77169 | 29693 ft | 448 kts | 194° |
| 2026-05-04 09:46 | 46.71583 | 11.76220 | 29943 ft | 449 kts | 194° |
| 2026-05-04 09:47 | 46.68528 | 11.75268 | 30169 ft | 450 kts | 194° |
| 2026-05-04 09:47 | 46.65461 | 11.74308 | 30378 ft | 451 kts | 194° |
| 2026-05-04 09:49 | 46.43757 | 11.71906 | 32426 ft | 443 kts | 184° |
| 2026-05-04 09:49 | 46.40682 | 11.71733 | 32703 ft | 442 kts | 184° |
| 2026-05-04 09:49 | 46.37609 | 11.71558 | 32959 ft | 442 kts | 185° |
| 2026-05-04 09:51 | 46.19263 | 11.70597 | 34454 ft | 438 kts | 185° |
| 2026-05-04 09:51 | 46.16261 | 11.70436 | 34664 ft | 437 kts | 185° |
| 2026-05-04 09:51 | 46.13222 | 11.70274 | 34840 ft | 437 kts | 185° |
| 2026-05-04 09:51 | 46.10144 | 11.70110 | 35026 ft | 436 kts | 185° |
| 2026-05-04 09:52 | 46.07147 | 11.69945 | 35117 ft | 436 kts | 185° |
| 2026-05-04 09:52 | 46.01100 | 11.69617 | 35140 ft | 434 kts | 185° |
| 2026-05-04 09:53 | 45.95074 | 11.69295 | 35149 ft | 433 kts | 184° |
| 2026-05-04 09:53 | 45.89037 | 11.68976 | 35153 ft | 434 kts | 185° |
| 2026-05-04 09:54 | 45.82998 | 11.68660 | 35160 ft | 434 kts | 185° |
| 2026-05-04 09:54 | 45.76968 | 11.68336 | 35148 ft | 434 kts | 185° |
| 2026-05-04 09:55 | 45.70933 | 11.68009 | 35143 ft | 434 kts | 185° |
| 2026-05-04 09:55 | 45.64897 | 11.67680 | 35125 ft | 434 kts | 185° |
| 2026-05-04 09:56 | 45.58851 | 11.67327 | 35138 ft | 434 kts | 185° |
| 2026-05-04 09:56 | 45.52807 | 11.66874 | 35135 ft | 435 kts | 185° |
| 2026-05-04 09:57 | 45.46802 | 11.66403 | 35143 ft | 435 kts | 185° |
| 2026-05-04 09:57 | 45.40749 | 11.65944 | 35150 ft | 435 kts | 185° |
| 2026-05-04 09:58 | 45.34696 | 11.65514 | 35149 ft | 436 kts | 185° |
| 2026-05-04 09:58 | 45.28639 | 11.65091 | 35158 ft | 436 kts | 185° |
| 2026-05-04 10:00 | 45.04337 | 11.64519 | 35177 ft | 439 kts | 179° |
| 2026-05-04 10:04 | 44.62610 | 11.66631 | 35169 ft | 439 kts | 180° |
| 2026-05-04 10:04 | 44.56493 | 11.66910 | 35159 ft | 439 kts | 181° |
| 2026-05-04 10:05 | 44.50398 | 11.67940 | 35160 ft | 442 kts | 174° |
| 2026-05-04 10:05 | 44.44316 | 11.69174 | 35170 ft | 442 kts | 174° |
| 2026-05-04 10:06 | 44.38228 | 11.70405 | 35169 ft | 442 kts | 174° |
| 2026-05-04 10:06 | 44.32168 | 11.71624 | 35181 ft | 442 kts | 174° |
| 2026-05-04 10:08 | 44.10813 | 11.75905 | 35165 ft | 443 kts | 174° |
| 2026-05-04 10:08 | 44.04713 | 11.77123 | 35165 ft | 443 kts | 175° |
| 2026-05-04 10:09 | 43.98611 | 11.78334 | 35163 ft | 443 kts | 175° |
| 2026-05-04 10:09 | 43.92518 | 11.79535 | 35175 ft | 442 kts | 175° |
| 2026-05-04 10:10 | 43.86425 | 11.80728 | 35180 ft | 441 kts | 175° |
| 2026-05-04 10:10 | 43.80391 | 11.81923 | 35171 ft | 441 kts | 175° |
| 2026-05-04 10:11 | 43.74337 | 11.83299 | 35093 ft | 442 kts | 171° |
| 2026-05-04 10:11 | 43.71340 | 11.84216 | 34867 ft | 440 kts | 170° |
| 2026-05-04 10:11 | 43.68376 | 11.85220 | 34615 ft | 438 kts | 169° |
| 2026-05-04 10:12 | 43.65428 | 11.86255 | 34372 ft | 436 kts | 169° |
| 2026-05-04 10:12 | 43.62490 | 11.87275 | 34122 ft | 433 kts | 169° |
| 2026-05-04 10:12 | 43.59573 | 11.88254 | 33642 ft | 429 kts | 170° |
| 2026-05-04 10:12 | 43.56680 | 11.89191 | 33161 ft | 425 kts | 170° |
| 2026-05-04 10:13 | 43.53815 | 11.90095 | 32693 ft | 420 kts | 170° |
| 2026-05-04 10:13 | 43.50977 | 11.90981 | 32223 ft | 416 kts | 170° |
| 2026-05-04 10:13 | 43.48162 | 11.91858 | 31757 ft | 412 kts | 170° |
| 2026-05-04 10:13 | 43.45376 | 11.92727 | 31288 ft | 409 kts | 170° |
| 2026-05-04 10:14 | 43.42615 | 11.93594 | 30827 ft | 405 kts | 169° |
| 2026-05-04 10:14 | 43.39918 | 11.94449 | 30374 ft | 402 kts | 169° |
| 2026-05-04 10:16 | 43.21556 | 12.00247 | 27364 ft | 372 kts | 169° |
| 2026-05-04 10:16 | 43.19040 | 12.01040 | 26966 ft | 369 kts | 169° |
| 2026-05-04 10:16 | 43.16548 | 12.01826 | 26584 ft | 365 kts | 169° |
| 2026-05-04 10:16 | 43.14085 | 12.02602 | 26206 ft | 361 kts | 169° |
| 2026-05-04 10:17 | 43.11675 | 12.03358 | 25834 ft | 358 kts | 169° |
| 2026-05-04 10:17 | 43.09224 | 12.04126 | 25456 ft | 355 kts | 169° |
| 2026-05-04 10:19 | 42.92886 | 12.09218 | 22792 ft | 336 kts | 169° |
| 2026-05-04 10:19 | 42.90618 | 12.09920 | 22412 ft | 333 kts | 169° |
| 2026-05-04 10:19 | 42.88366 | 12.10618 | 22018 ft | 331 kts | 169° |
| 2026-05-04 10:19 | 42.86127 | 12.11314 | 21635 ft | 329 kts | 169° |
| 2026-05-04 10:20 | 42.83903 | 12.12004 | 21253 ft | 326 kts | 169° |
| 2026-05-04 10:20 | 42.81702 | 12.12688 | 20862 ft | 324 kts | 169° |
| 2026-05-04 10:20 | 42.79513 | 12.13371 | 20479 ft | 321 kts | 169° |
| 2026-05-04 10:20 | 42.77344 | 12.14046 | 20098 ft | 319 kts | 169° |
| 2026-05-04 10:21 | 42.75183 | 12.14715 | 19721 ft | 317 kts | 169° |
| 2026-05-04 10:21 | 42.73062 | 12.15369 | 19346 ft | 315 kts | 169° |
| 2026-05-04 10:21 | 42.70899 | 12.16060 | 19245 ft | 319 kts | 166° |
| 2026-05-04 10:21 | 42.68847 | 12.17168 | 19034 ft | 326 kts | 155° |
| 2026-05-04 10:22 | 42.64954 | 12.20277 | 18225 ft | 322 kts | 152° |
| 2026-05-04 10:22 | 42.63035 | 12.21819 | 17850 ft | 319 kts | 152° |
| 2026-05-04 10:22 | 42.61126 | 12.23347 | 17475 ft | 317 kts | 152° |
| 2026-05-04 10:23 | 42.59233 | 12.24861 | 17114 ft | 315 kts | 152° |
| 2026-05-04 10:23 | 42.57352 | 12.26367 | 16756 ft | 313 kts | 152° |
| 2026-05-04 10:25 | 42.44507 | 12.36597 | 14280 ft | 297 kts | 150° |
| 2026-05-04 10:25 | 42.42733 | 12.38006 | 13938 ft | 295 kts | 150° |
| 2026-05-04 10:25 | 42.40974 | 12.39404 | 13577 ft | 292 kts | 150° |
| 2026-05-04 10:25 | 42.39262 | 12.40763 | 13340 ft | 284 kts | 150° |
| 2026-05-04 10:26 | 42.37591 | 12.42090 | 13153 ft | 275 kts | 150° |
| 2026-05-04 10:26 | 42.35923 | 12.43305 | 12878 ft | 270 kts | 159° |
| 2026-05-04 10:26 | 42.34147 | 12.44091 | 12625 ft | 268 kts | 163° |
| 2026-05-04 10:26 | 42.32361 | 12.44840 | 12364 ft | 269 kts | 163° |
| 2026-05-04 10:27 | 42.30579 | 12.45588 | 12113 ft | 268 kts | 163° |
| 2026-05-04 10:27 | 42.28800 | 12.46337 | 11883 ft | 267 kts | 163° |
| 2026-05-04 10:27 | 42.27016 | 12.47090 | 11543 ft | 269 kts | 163° |
| 2026-05-04 10:27 | 42.25240 | 12.47838 | 11230 ft | 266 kts | 164° |
| 2026-05-04 10:28 | 42.23450 | 12.48113 | 11028 ft | 257 kts | 190° |
| 2026-05-04 10:28 | 42.21872 | 12.47079 | 10660 ft | 256 kts | 225° |
| 2026-05-04 10:28 | 42.20990 | 12.45023 | 10339 ft | 255 kts | 253° |
| 2026-05-04 10:28 | 42.20501 | 12.42728 | 10030 ft | 254 kts | 252° |
| 2026-05-04 10:29 | 42.19984 | 12.40453 | 9716 ft | 253 kts | 251° |
| 2026-05-04 10:29 | 42.19469 | 12.38199 | 9411 ft | 250 kts | 254° |
| 2026-05-04 10:29 | 42.19452 | 12.35870 | 9103 ft | 252 kts | 285° |
| 2026-05-04 10:29 | 42.20356 | 12.33873 | 8891 ft | 253 kts | 318° |
| 2026-05-04 10:30 | 42.21928 | 12.32764 | 8825 ft | 261 kts | 342° |
| 2026-05-04 10:30 | 42.23669 | 12.32046 | 8647 ft | 263 kts | 338° |
| 2026-05-04 10:30 | 42.25124 | 12.30672 | 8054 ft | 256 kts | 303° |
| 2026-05-04 10:30 | 42.25693 | 12.28511 | 7565 ft | 239 kts | 269° |
| 2026-05-04 10:31 | 42.25447 | 12.26374 | 7266 ft | 228 kts | 248° |
| 2026-05-04 10:31 | 42.24937 | 12.24345 | 7020 ft | 229 kts | 249° |
| 2026-05-04 10:32 | 42.19350 | 12.17357 | 5386 ft | 215 kts | 163° |
| 2026-05-04 10:33 | 42.17928 | 12.17961 | 5128 ft | 213 kts | 163° |
| 2026-05-04 10:33 | 42.16518 | 12.18561 | 4850 ft | 212 kts | 163° |
| 2026-05-04 10:33 | 42.15087 | 12.18999 | 4520 ft | 210 kts | 176° |
| 2026-05-04 10:33 | 42.13646 | 12.18820 | 4260 ft | 206 kts | 192° |
| 2026-05-04 10:34 | 42.12288 | 12.18403 | 4113 ft | 201 kts | 191° |
| 2026-05-04 10:34 | 42.10909 | 12.17991 | 3863 ft | 199 kts | 191° |
| 2026-05-04 10:34 | 42.09568 | 12.17590 | 3576 ft | 197 kts | 191° |
| 2026-05-04 10:34 | 42.08248 | 12.17195 | 3327 ft | 197 kts | 191° |
| 2026-05-04 10:35 | 42.06884 | 12.16971 | 3075 ft | 199 kts | 178° |
| 2026-05-04 10:35 | 42.05539 | 12.17342 | 2981 ft | 198 kts | 162° |
| 2026-05-04 10:35 | 42.04226 | 12.17897 | 2942 ft | 199 kts | 162° |
| 2026-05-04 10:35 | 42.02901 | 12.18456 | 2891 ft | 199 kts | 163° |
| 2026-05-04 10:36 | 42.01579 | 12.19013 | 2748 ft | 199 kts | 163° |
| 2026-05-04 10:36 | 42.00263 | 12.19567 | 2677 ft | 197 kts | 163° |
| 2026-05-04 10:36 | 41.99001 | 12.20098 | 2585 ft | 185 kts | 162° |
| 2026-05-04 10:36 | 41.97791 | 12.20608 | 2508 ft | 179 kts | 163° |
| 2026-05-04 10:37 | 41.96611 | 12.21104 | 2432 ft | 177 kts | 163° |
| 2026-05-04 10:37 | 41.95441 | 12.21596 | 2261 ft | 176 kts | 163° |
| 2026-05-04 10:37 | 41.94324 | 12.22066 | 2032 ft | 162 kts | 163° |
| 2026-05-04 10:37 | 41.93269 | 12.22509 | 1820 ft | 157 kts | 163° |
| 2026-05-04 10:39 | 41.87606 | 12.24888 | 684 ft | 137 kts | 164° |
| 2026-05-04 10:39 | 41.86695 | 12.25270 | 503 ft | 136 kts | 165° |
| 2026-05-04 10:39 | 41.85790 | 12.25648 | 307 ft | 138 kts | 165° |
| 2026-05-04 10:40 | 41.84877 | 12.26030 | 124 ft | 137 kts | 164° |
| 2026-05-04 10:40 | 41.83981 | 12.26410 | 18 ft | 127 kts | 164° |
| 2026-05-04 10:40 | 41.83270 | 12.26705 | 11 ft | 83 kts | 162° |
| 2026-05-04 10:40 | 41.82893 | 12.26861 | 13 ft | 36 kts | 165° |
| 2026-05-04 10:41 | 41.82667 | 12.26857 | 11 ft | 32 kts | 191° |
| 2026-05-04 10:41 | 41.82473 | 12.26800 | 11 ft | 26 kts | 192° |
| 2026-05-04 10:41 | 41.82314 | 12.26786 | 11 ft | 23 kts | 168° |
| 2026-05-04 10:41 | 41.82162 | 12.26846 | 11 ft | 23 kts | 162° |
| 2026-05-04 10:42 | 41.82009 | 12.26910 | 11 ft | 23 kts | 162° |
| 2026-05-04 10:42 | 41.81851 | 12.26975 | 11 ft | 24 kts | 162° |
| 2026-05-04 10:42 | 41.81692 | 12.27043 | 12 ft | 24 kts | 162° |
| 2026-05-04 10:42 | 41.81529 | 12.27111 | 12 ft | 25 kts | 163° |
| 2026-05-04 10:43 | 41.81362 | 12.27181 | 12 ft | 25 kts | 162° |
| 2026-05-04 10:44 | 41.80597 | 12.27010 | 13 ft | 17 kts | 249° |
| 2026-05-04 10:45 | 41.80554 | 12.26856 | 14 ft | 18 kts | 250° |
| 2026-05-04 10:45 | 41.80510 | 12.26695 | 16 ft | 18 kts | 250° |
| 2026-05-04 10:45 | 41.80465 | 12.26531 | 15 ft | 19 kts | 250° |
| 2026-05-04 10:45 | 41.80424 | 12.26393 | 17 ft | 11 kts | 238° |
| 2026-05-04 10:46 | 41.80348 | 12.26370 | 15 ft | 13 kts | 165° |
| 2026-05-04 10:46 | 41.80256 | 12.26411 | 16 ft | 14 kts | 170° |
| 2026-05-04 10:46 | 41.80162 | 12.26373 | 14 ft | 15 kts | 205° |
| 2026-05-04 10:46 | 41.80064 | 12.26312 | 14 ft | 16 kts | 205° |
| 2026-05-04 10:47 | 41.79955 | 12.26246 | 14 ft | 18 kts | 205° |
| 2026-05-04 10:47 | 41.79857 | 12.26185 | 15 ft | 11 kts | 205° |
| 2026-05-04 10:47 | 41.79785 | 12.26139 | 15 ft | 10 kts | 211° |
| 2026-05-04 10:47 | 41.79771 | 12.26054 | 14 ft | 11 kts | 287° |
| 2026-05-04 10:49 | 41.79868 | 12.25580 | 14 ft | 1 kts | 205° |
| 2026-05-04 10:49 | 41.79862 | 12.25576 | 16 ft | 0 kts | 205° |